createdAt,value
2017-10-22T14:39:42.916Z,620
2017-10-22T14:40:41.922Z,628
2017-10-22T14:41:41.938Z,640
2017-10-22T14:42:41.944Z,668
2017-10-22T14:43:41.971Z,696
2017-10-22T14:44:42.372Z,724
2017-10-22T14:45:42.345Z,736
2017-10-22T14:46:43.064Z,732
2017-10-22T14:47:43.071Z,716
2017-10-22T14:48:42.453Z,696
2017-10-22T14:49:43.159Z,680
2017-10-22T14:50:43.128Z,704
2017-10-22T14:51:42.827Z,792
2017-10-22T14:52:43.177Z,972
2017-10-22T14:53:42.877Z,1204
2017-10-22T14:54:43.190Z,1468
2017-10-22T14:55:42.540Z,1792
2017-10-22T14:56:42.198Z,2196
2017-10-22T14:57:42.856Z,2628
2017-10-22T14:58:42.232Z,2920
2017-10-22T14:59:42.522Z,3088
2017-10-22T15:00:42.597Z,3180
2017-10-22T15:01:42.289Z,3176
2017-10-22T15:02:42.628Z,3088
2017-10-22T15:03:42.704Z,3028
2017-10-22T15:04:42.670Z,3008
2017-10-22T15:05:43.455Z,2996
2017-10-22T15:06:42.852Z,2984
2017-10-22T15:07:43.266Z,2976
2017-10-22T15:08:43.545Z,2932
2017-10-22T15:09:42.760Z,2864
2017-10-22T15:10:42.464Z,2752
2017-10-22T15:11:42.864Z,2632
2017-10-22T15:12:42.501Z,2452
2017-10-22T15:13:42.899Z,2268
2017-10-22T15:14:42.536Z,2068
2017-10-22T15:15:42.561Z,1892
2017-10-22T15:16:42.578Z,1764
2017-10-22T15:17:42.589Z,1616
2017-10-22T15:18:42.616Z,1432
2017-10-22T15:19:42.629Z,1288
2017-10-22T15:20:42.705Z,1136
2017-10-22T15:21:43.530Z,996
2017-10-22T15:22:43.487Z,896
2017-10-22T15:23:43.845Z,808
2017-10-22T15:24:44.031Z,736
2017-10-22T15:25:43.537Z,680
2017-10-22T15:26:43.106Z,636
2017-10-22T15:27:43.940Z,604
2017-10-22T15:28:42.823Z,580
2017-10-22T15:29:43.553Z,568
2017-10-22T15:30:44.196Z,576
2017-10-22T15:31:42.896Z,572
2017-10-22T15:32:42.899Z,572
2017-10-22T15:33:42.921Z,576
2017-10-22T15:34:42.943Z,568
2017-10-22T15:35:43.354Z,552
2017-10-22T15:36:42.980Z,528
2017-10-22T15:37:43.004Z,520
2017-10-22T15:38:43.025Z,528
2017-10-22T15:39:43.417Z,540
2017-10-22T15:40:43.069Z,560
2017-10-22T15:41:43.096Z,560
2017-10-22T15:42:43.118Z,504
2017-10-22T15:43:43.130Z,420
2017-10-22T15:44:43.145Z,364
2017-10-22T15:45:43.199Z,312
2017-10-22T15:46:43.191Z,276
2017-10-22T15:47:43.578Z,252
2017-10-22T15:48:43.240Z,232
2017-10-22T15:49:43.257Z,268
2017-10-22T15:50:43.669Z,340
2017-10-22T15:51:43.309Z,412
2017-10-22T15:52:43.314Z,452
2017-10-22T15:53:43.374Z,468
2017-10-22T15:54:43.349Z,472
2017-10-22T15:55:43.369Z,468
2017-10-22T15:56:43.399Z,432
2017-10-22T15:57:43.733Z,364
2017-10-22T15:58:43.784Z,312
2017-10-22T15:59:43.454Z,268
2017-10-22T16:00:43.470Z,244
2017-10-22T16:01:44.095Z,240
2017-10-22T16:02:43.511Z,268
2017-10-22T16:03:43.568Z,308
2017-10-22T16:04:43.546Z,336
2017-10-22T16:05:43.621Z,332
2017-10-22T16:06:43.583Z,316
2017-10-22T16:07:43.607Z,280
2017-10-22T16:08:43.976Z,244
2017-10-22T16:09:43.977Z,216
2017-10-22T16:10:43.668Z,204
2017-10-22T16:11:43.729Z,184
2017-10-22T16:12:43.705Z,176
2017-10-22T16:13:44.062Z,160
2017-10-22T16:14:43.753Z,144
2017-10-22T16:15:43.801Z,116
2017-10-22T16:16:43.798Z,96
2017-10-22T16:17:44.154Z,68
2017-10-22T16:18:43.836Z,52
2017-10-22T16:19:43.843Z,44
2017-10-22T16:20:43.943Z,28
2017-10-22T16:21:44.209Z,24
2017-10-22T16:22:43.901Z,16
2017-10-22T16:23:44.259Z,16
2017-10-22T16:24:43.946Z,12
2017-10-22T16:25:43.973Z,8
2017-10-22T16:26:43.985Z,4
2017-10-22T16:27:44.321Z,4
2017-10-22T16:28:44.373Z,4
2017-10-22T16:29:44.041Z,4
2017-10-22T16:30:44.075Z,4
2017-10-22T16:31:44.092Z,4
2017-10-22T16:32:44.100Z,4
2017-10-22T16:33:44.138Z,8
2017-10-22T16:34:44.149Z,4
2017-10-22T16:35:44.192Z,4
2017-10-22T16:36:44.503Z,4
2017-10-22T16:37:44.201Z,4
2017-10-22T16:38:44.227Z,0
2017-10-22T16:39:44.322Z,4
2017-10-22T16:40:44.281Z,0
2017-10-22T16:41:44.954Z,0
2017-10-22T16:42:44.709Z,4
2017-10-22T16:43:44.651Z,0
2017-10-22T16:44:44.332Z,0
2017-10-22T16:45:44.695Z,0
2017-10-22T16:46:44.731Z,0
2017-10-22T16:47:44.386Z,0
2017-10-22T16:48:44.746Z,0
2017-10-22T16:49:44.420Z,0
2017-10-22T16:50:44.442Z,0
2017-10-22T16:51:44.798Z,0
2017-10-22T16:52:44.501Z,0
2017-10-22T16:53:44.479Z,0
2017-10-22T16:54:44.556Z,0
2017-10-22T16:55:44.537Z,0
2017-10-22T16:56:44.550Z,0
2017-10-22T16:57:44.898Z,0
2017-10-22T16:58:44.584Z,0
2017-10-22T16:59:44.926Z,0
2017-10-22T17:00:44.614Z,0
2017-10-22T17:01:44.638Z,0
2017-10-22T17:02:45.818Z,0
2017-10-22T17:03:44.676Z,0
2017-10-22T17:04:44.695Z,0
2017-10-22T17:05:44.730Z,0
2017-10-22T17:06:44.738Z,0
2017-10-22T17:07:44.753Z,0
2017-10-22T17:08:44.761Z,0
2017-10-22T17:09:44.836Z,0
2017-10-22T17:10:44.830Z,0
2017-10-22T17:11:44.823Z,0
2017-10-22T17:12:44.837Z,0
2017-10-22T17:13:44.863Z,0
2017-10-22T17:14:45.206Z,0
2017-10-22T17:15:44.896Z,0
2017-10-22T17:16:44.908Z,0
2017-10-22T17:17:44.938Z,0
2017-10-22T17:18:44.960Z,0
2017-10-22T17:19:44.969Z,0
2017-10-22T17:20:44.991Z,0
2017-10-22T17:21:45.030Z,0
2017-10-22T17:22:45.358Z,0
2017-10-22T17:23:45.388Z,0
2017-10-22T17:24:45.110Z,0
2017-10-22T17:25:45.407Z,0
2017-10-22T17:26:45.425Z,0
2017-10-22T17:27:45.441Z,0
2017-10-22T17:28:45.137Z,0
2017-10-22T17:29:45.485Z,0
2017-10-22T17:30:45.182Z,0
2017-10-22T17:31:45.193Z,0
2017-10-22T17:32:45.611Z,0
2017-10-22T17:33:45.240Z,0
2017-10-22T17:34:45.241Z,0
2017-10-22T17:35:45.264Z,0
2017-10-22T17:36:45.341Z,0
2017-10-22T17:37:45.302Z,0
2017-10-22T17:38:45.324Z,0
2017-10-22T17:39:45.340Z,0
2017-10-22T17:40:45.685Z,0
2017-10-22T17:41:45.381Z,0
2017-10-22T17:42:45.392Z,0
2017-10-22T17:43:45.414Z,0
2017-10-22T17:44:45.442Z,0
2017-10-22T17:45:45.776Z,0
2017-10-22T17:46:45.794Z,0
2017-10-22T17:47:45.489Z,0
2017-10-22T17:48:45.519Z,0
2017-10-22T17:49:45.524Z,0
2017-10-22T17:50:45.880Z,0
2017-10-22T17:51:45.561Z,0
2017-10-22T17:52:45.904Z,0
2017-10-22T17:53:45.599Z,0
2017-10-22T17:54:45.614Z,0
2017-10-22T17:55:45.961Z,0
2017-10-22T17:56:45.649Z,0
2017-10-22T17:57:45.685Z,0
2017-10-22T17:58:45.696Z,0
2017-10-22T17:59:46.046Z,0
2017-10-22T18:00:46.050Z,0
2017-10-22T18:01:45.748Z,0
2017-10-22T18:02:45.773Z,0
2017-10-22T18:03:45.790Z,0
2017-10-22T18:04:45.802Z,0
2017-10-22T18:05:45.820Z,0
2017-10-22T18:06:45.837Z,0
2017-10-22T18:07:45.854Z,0
2017-10-22T18:08:46.523Z,0
2017-10-22T18:09:46.049Z,0
2017-10-22T18:10:45.910Z,0
2017-10-22T18:11:45.936Z,0
2017-10-22T18:12:45.953Z,0
2017-10-22T18:13:46.298Z,0
2017-10-22T18:14:45.981Z,0
2017-10-22T18:15:46.011Z,0
2017-10-22T18:16:46.014Z,0
2017-10-22T18:17:46.046Z,0
2017-10-22T18:18:46.060Z,0
2017-10-22T18:19:46.399Z,0
2017-10-22T18:20:46.104Z,0
2017-10-22T18:21:46.110Z,0
2017-10-22T18:22:46.129Z,0
2017-10-22T18:23:46.473Z,0
2017-10-22T18:24:46.488Z,0
2017-10-22T18:25:46.239Z,0
2017-10-22T18:26:46.198Z,0
2017-10-22T18:27:46.220Z,0
2017-10-22T18:28:46.242Z,0
2017-10-22T18:29:46.247Z,0
2017-10-22T18:30:46.263Z,0
2017-10-22T18:31:46.621Z,0
2017-10-22T18:32:46.305Z,0
2017-10-22T18:33:46.318Z,0
2017-10-22T18:34:46.339Z,0
2017-10-22T18:35:46.362Z,0
2017-10-22T18:36:46.718Z,0
2017-10-22T18:37:46.409Z,0
2017-10-22T18:38:46.423Z,0
2017-10-22T18:39:46.772Z,0
2017-10-22T18:40:46.870Z,0
2017-10-22T18:41:46.792Z,0
2017-10-22T18:42:46.497Z,0
2017-10-22T18:43:46.514Z,0
2017-10-22T18:44:46.532Z,0
2017-10-22T18:45:46.544Z,0
2017-10-22T18:46:46.554Z,0
2017-10-22T18:47:46.597Z,0
2017-10-22T18:48:46.925Z,0
2017-10-22T18:49:46.598Z,0
2017-10-22T18:50:46.630Z,0
2017-10-22T18:51:46.644Z,0
2017-10-22T18:52:46.660Z,0
2017-10-22T18:53:47.013Z,0
2017-10-22T18:54:46.709Z,0
2017-10-22T18:55:46.715Z,0
2017-10-22T18:56:47.059Z,0
2017-10-22T18:57:46.797Z,0
2017-10-22T18:58:47.086Z,0
2017-10-22T18:59:46.784Z,0
2017-10-22T19:00:46.794Z,0
2017-10-22T19:01:47.145Z,0
2017-10-22T19:02:46.839Z,0
2017-10-22T19:03:46.859Z,0
2017-10-22T19:04:46.876Z,0
2017-10-22T19:05:46.894Z,0
2017-10-22T19:06:46.932Z,0
2017-10-22T19:07:47.250Z,0
2017-10-22T19:08:47.275Z,0
2017-10-22T19:09:46.960Z,0
2017-10-22T19:10:46.977Z,0
2017-10-22T19:11:46.998Z,0
2017-10-22T19:12:47.024Z,0
2017-10-22T19:13:47.692Z,0
2017-10-22T19:14:47.059Z,0
2017-10-22T19:15:47.439Z,0
2017-10-22T19:16:47.086Z,0
2017-10-22T19:17:47.101Z,0
2017-10-22T19:18:47.126Z,0
2017-10-22T19:19:47.463Z,0
2017-10-22T19:20:47.174Z,0
2017-10-22T19:21:47.175Z,0
2017-10-22T19:22:47.192Z,0
2017-10-22T19:23:47.220Z,0
2017-10-22T19:24:47.580Z,0
2017-10-22T19:25:47.243Z,0
2017-10-22T19:26:47.258Z,0
2017-10-22T19:27:47.607Z,0
2017-10-22T19:28:47.320Z,0
2017-10-22T19:29:47.637Z,0
2017-10-22T19:30:47.335Z,0
2017-10-22T19:31:47.738Z,0
2017-10-22T19:32:47.380Z,0
2017-10-22T19:33:47.387Z,0
2017-10-22T19:34:47.425Z,0
2017-10-22T19:35:47.470Z,0
2017-10-22T19:36:47.432Z,0
2017-10-22T19:37:47.456Z,0
2017-10-22T19:38:47.470Z,0
2017-10-22T19:39:47.867Z,0
2017-10-22T19:40:47.826Z,0
2017-10-22T19:41:47.526Z,0
2017-10-22T19:42:47.866Z,0
2017-10-22T19:43:47.949Z,0
2017-10-22T19:44:47.966Z,0
2017-10-22T19:45:47.602Z,0
2017-10-22T19:46:47.612Z,0
2017-10-22T19:47:47.962Z,0
2017-10-22T19:48:47.652Z,0
2017-10-22T19:49:47.711Z,0
2017-10-22T19:50:48.011Z,0
2017-10-22T19:51:48.017Z,0
2017-10-22T19:52:47.726Z,0
2017-10-22T19:53:47.735Z,0
2017-10-22T19:54:47.750Z,0
2017-10-22T19:55:47.772Z,0
2017-10-22T19:56:47.797Z,0
2017-10-22T19:57:47.808Z,0
2017-10-22T19:58:47.815Z,0
2017-10-22T19:59:47.853Z,0
2017-10-22T20:00:47.865Z,0
2017-10-22T20:01:48.542Z,0
2017-10-22T20:02:47.891Z,0
2017-10-22T20:03:47.909Z,0
2017-10-22T20:04:47.928Z,0
2017-10-22T20:05:48.001Z,0
2017-10-22T20:06:48.297Z,0
2017-10-22T20:07:47.976Z,0
2017-10-22T20:08:48.002Z,0
2017-10-22T20:09:48.016Z,0
2017-10-22T20:10:48.350Z,0
2017-10-22T20:11:48.379Z,0
2017-10-22T20:12:48.059Z,0
2017-10-22T20:13:48.083Z,0
2017-10-22T20:14:48.428Z,0
2017-10-22T20:15:48.115Z,0
2017-10-22T20:16:48.987Z,0
2017-10-22T20:17:48.152Z,0
2017-10-22T20:18:48.169Z,0
2017-10-22T20:19:48.192Z,0
2017-10-22T20:20:48.525Z,0
2017-10-22T20:21:48.256Z,0
2017-10-22T20:22:48.239Z,0
2017-10-22T20:23:48.253Z,0
2017-10-22T20:24:48.270Z,0
2017-10-22T20:25:48.288Z,0
2017-10-22T20:26:48.311Z,0
2017-10-22T20:27:48.649Z,0
2017-10-22T20:28:48.344Z,0
2017-10-22T20:29:48.358Z,0
2017-10-22T20:30:48.377Z,0
2017-10-22T20:31:48.387Z,0
2017-10-22T20:32:48.411Z,0
2017-10-22T20:33:48.436Z,0
2017-10-22T20:34:48.766Z,0
2017-10-22T20:35:48.483Z,0
2017-10-22T20:36:48.477Z,0
2017-10-22T20:37:48.827Z,0
2017-10-22T20:38:48.516Z,0
2017-10-22T20:39:48.530Z,0
2017-10-22T20:40:48.550Z,0
2017-10-22T20:41:48.826Z,0
2017-10-22T20:42:48.580Z,0
2017-10-22T20:43:48.605Z,0
2017-10-22T20:44:48.618Z,0
2017-10-22T20:45:48.639Z,0
2017-10-22T20:46:48.998Z,0
2017-10-22T20:47:48.661Z,0
2017-10-22T20:48:48.694Z,0
2017-10-22T20:49:49.023Z,0
2017-10-22T20:50:48.724Z,0
2017-10-22T20:51:48.740Z,0
2017-10-22T20:52:49.089Z,0
2017-10-22T20:53:48.772Z,0
2017-10-22T20:54:49.127Z,0
2017-10-22T20:55:48.807Z,0
2017-10-22T20:56:49.157Z,0
2017-10-22T20:57:48.848Z,0
2017-10-22T20:58:48.885Z,0
2017-10-22T20:59:48.874Z,0
2017-10-22T21:00:48.951Z,0
2017-10-22T21:01:48.916Z,0
2017-10-22T21:02:48.928Z,0
2017-10-22T21:03:49.291Z,0
2017-10-22T21:04:48.969Z,0
2017-10-22T21:05:48.983Z,0
2017-10-22T21:06:49.004Z,0
2017-10-22T21:07:49.016Z,0
2017-10-22T21:08:49.040Z,0
2017-10-22T21:09:49.051Z,0
2017-10-22T21:10:49.394Z,0
2017-10-22T21:11:49.093Z,0
2017-10-22T21:12:49.118Z,0
2017-10-22T21:13:49.119Z,0
2017-10-22T21:14:49.158Z,0
2017-10-22T21:15:49.159Z,0
2017-10-22T21:16:49.498Z,0
2017-10-22T21:17:49.243Z,0
2017-10-22T21:18:49.866Z,0
2017-10-22T21:19:49.581Z,0
2017-10-22T21:20:49.272Z,0
2017-10-22T21:21:49.275Z,0
2017-10-22T21:22:49.609Z,0
2017-10-22T21:23:49.299Z,0
2017-10-22T21:24:49.329Z,0
2017-10-22T21:25:49.338Z,0
2017-10-22T21:26:49.561Z,0
2017-10-22T21:27:49.370Z,0
2017-10-22T21:28:49.389Z,0
2017-10-22T21:29:49.406Z,0
2017-10-22T21:30:49.429Z,0
2017-10-22T21:31:49.440Z,0
2017-10-22T21:32:49.846Z,0
2017-10-22T21:33:49.479Z,0
2017-10-22T21:34:49.494Z,0
2017-10-22T21:35:49.519Z,0
2017-10-22T21:36:49.849Z,0
2017-10-22T21:37:49.552Z,0
2017-10-22T21:38:49.566Z,0
2017-10-22T21:39:49.582Z,0
2017-10-22T21:40:49.605Z,0
2017-10-22T21:41:49.613Z,0
2017-10-22T21:42:49.638Z,0
2017-10-22T21:43:49.648Z,0
2017-10-22T21:44:49.668Z,0
2017-10-22T21:45:49.688Z,0
2017-10-22T21:46:49.705Z,0
2017-10-22T21:47:49.735Z,0
2017-10-22T21:48:49.793Z,0
2017-10-22T21:49:49.782Z,0
2017-10-22T21:50:49.801Z,0
2017-10-22T21:51:49.793Z,0
2017-10-22T21:52:49.812Z,0
2017-10-22T21:53:49.833Z,0
2017-10-22T21:54:49.848Z,0
2017-10-22T21:55:49.890Z,0
2017-10-22T21:56:49.883Z,0
2017-10-22T21:57:49.903Z,0
2017-10-22T21:58:49.925Z,0
2017-10-22T21:59:49.943Z,0
2017-10-22T22:00:49.958Z,0
2017-10-22T22:01:49.976Z,0
2017-10-22T22:02:50.318Z,0
2017-10-22T22:03:50.013Z,0
2017-10-22T22:04:50.044Z,0
2017-10-22T22:05:50.051Z,0
2017-10-22T22:06:50.071Z,0
2017-10-22T22:07:50.447Z,0
2017-10-22T22:08:50.103Z,0
2017-10-22T22:09:50.125Z,0
2017-10-22T22:10:50.139Z,0
2017-10-22T22:11:50.153Z,0
2017-10-22T22:12:50.177Z,0
2017-10-22T22:13:50.184Z,0
2017-10-22T22:14:50.204Z,0
2017-10-22T22:15:50.239Z,0
2017-10-22T22:16:50.243Z,0
2017-10-22T22:17:50.258Z,0
2017-10-22T22:18:50.286Z,0
2017-10-22T22:19:50.300Z,0
2017-10-22T22:20:50.306Z,0
2017-10-22T22:21:50.667Z,0
2017-10-22T22:22:50.351Z,0
2017-10-22T22:23:50.376Z,0
2017-10-22T22:24:50.708Z,0
2017-10-22T22:25:50.748Z,0
2017-10-22T22:26:50.467Z,0
2017-10-22T22:27:50.443Z,0
2017-10-22T22:28:50.778Z,0
2017-10-22T22:29:50.472Z,0
2017-10-22T22:30:50.500Z,0
2017-10-22T22:31:50.841Z,0
2017-10-22T22:32:50.527Z,0
2017-10-22T22:33:50.881Z,0
2017-10-22T22:34:50.559Z,0
2017-10-22T22:35:50.577Z,0
2017-10-22T22:36:50.606Z,0
2017-10-22T22:37:50.621Z,0
2017-10-22T22:38:50.630Z,0
2017-10-22T22:39:50.981Z,0
2017-10-22T22:40:51.005Z,0
2017-10-22T22:41:50.683Z,0
2017-10-22T22:42:50.722Z,0
2017-10-22T22:43:50.717Z,0
2017-10-22T22:44:51.077Z,0
2017-10-22T22:45:50.753Z,0
2017-10-22T22:46:51.098Z,0
2017-10-22T22:47:50.804Z,0
2017-10-22T22:48:50.813Z,0
2017-10-22T22:49:50.822Z,0
2017-10-22T22:50:50.840Z,0
2017-10-22T22:51:51.191Z,0
2017-10-22T22:52:50.874Z,0
2017-10-22T22:53:50.891Z,0
2017-10-22T22:54:50.908Z,0
2017-10-22T22:55:51.250Z,0
2017-10-22T22:56:51.287Z,0
2017-10-22T22:57:50.966Z,0
2017-10-22T22:58:51.029Z,0
2017-10-22T22:59:51.002Z,0
2017-10-22T23:00:51.010Z,0
2017-10-22T23:01:51.041Z,0
2017-10-22T23:02:51.379Z,0
2017-10-22T23:03:51.070Z,0
2017-10-22T23:04:51.075Z,0
2017-10-22T23:05:51.438Z,0
2017-10-22T23:06:51.113Z,0
2017-10-22T23:07:51.144Z,0
2017-10-22T23:08:51.163Z,0
2017-10-22T23:09:51.500Z,0
2017-10-22T23:10:51.210Z,0
2017-10-22T23:11:51.203Z,0
2017-10-22T23:12:51.227Z,0
2017-10-22T23:13:51.623Z,0
2017-10-22T23:14:51.251Z,0
2017-10-22T23:15:51.273Z,0
2017-10-22T23:16:51.290Z,0
2017-10-22T23:17:51.315Z,0
2017-10-22T23:18:51.653Z,0
2017-10-22T23:19:51.356Z,0
2017-10-22T23:20:51.355Z,0
2017-10-22T23:21:51.375Z,0
2017-10-22T23:22:51.395Z,0
2017-10-22T23:23:51.405Z,0
2017-10-22T23:24:51.446Z,0
2017-10-22T23:25:51.758Z,0
2017-10-22T23:26:51.788Z,0
2017-10-22T23:27:51.476Z,0
2017-10-22T23:28:51.499Z,0
2017-10-22T23:29:51.515Z,0
2017-10-22T23:30:51.532Z,0
2017-10-22T23:31:51.554Z,0
2017-10-22T23:32:51.890Z,0
2017-10-22T23:33:51.910Z,0
2017-10-22T23:34:51.607Z,0
2017-10-22T23:35:51.618Z,0
2017-10-22T23:36:51.629Z,0
2017-10-22T23:37:51.655Z,0
2017-10-22T23:38:52.006Z,0
2017-10-22T23:39:51.683Z,0
2017-10-22T23:40:51.705Z,0
2017-10-22T23:41:51.722Z,0
2017-10-22T23:42:51.732Z,0
2017-10-22T23:43:52.070Z,0
2017-10-22T23:44:52.100Z,0
2017-10-22T23:45:51.784Z,0
2017-10-22T23:46:51.814Z,0
2017-10-22T23:47:52.162Z,0
2017-10-22T23:48:51.838Z,0
2017-10-22T23:49:51.852Z,0
2017-10-22T23:50:51.871Z,0
2017-10-22T23:51:52.583Z,0
2017-10-22T23:52:52.566Z,0
2017-10-22T23:53:51.929Z,0
2017-10-22T23:54:52.265Z,0
2017-10-22T23:55:51.963Z,0
2017-10-22T23:56:51.999Z,0
2017-10-22T23:57:51.993Z,0
2017-10-22T23:58:52.012Z,0
2017-10-22T23:59:52.023Z,0
